createdAt,value
2023-04-18T00:00:08.295Z,79
2023-04-18T00:00:35.150Z,79
2023-04-18T00:00:55.862Z,79
2023-04-18T00:01:27.613Z,79
2023-04-18T00:01:59.729Z,79
2023-04-18T00:02:31.758Z,79
2023-04-18T00:03:04.679Z,79
2023-04-18T00:03:35.817Z,79
2023-04-18T00:04:07.884Z,78
2023-04-18T00:04:35.254Z,78
2023-04-18T00:04:55.830Z,77
2023-04-18T00:05:28.008Z,77
2023-04-18T00:05:59.583Z,77
2023-04-18T00:06:31.562Z,78
2023-04-18T00:07:03.585Z,78
2023-04-18T00:07:36.354Z,78
2023-04-18T00:08:07.577Z,78
2023-04-18T00:08:35.217Z,78
2023-04-18T00:08:55.651Z,78
2023-04-18T00:09:27.688Z,78
2023-04-18T00:09:59.613Z,79
2023-04-18T00:10:31.884Z,78
2023-04-18T00:11:03.662Z,78
2023-04-18T00:11:35.606Z,78
2023-04-18T00:12:07.593Z,78
2023-04-18T00:12:35.632Z,78
2023-04-18T00:12:55.584Z,78
2023-04-18T00:13:27.596Z,78
2023-04-18T00:14:00.765Z,78
2023-04-18T00:14:31.556Z,78
2023-04-18T00:15:04.105Z,78
2023-04-18T00:15:35.776Z,78
2023-04-18T00:16:08.050Z,77
2023-04-18T00:16:35.620Z,77
2023-04-18T00:16:55.693Z,77
2023-04-18T00:17:27.685Z,78
2023-04-18T00:17:59.594Z,78
2023-04-18T00:18:31.619Z,78
2023-04-18T00:19:03.676Z,78
2023-04-18T00:19:35.608Z,78
2023-04-18T00:20:07.959Z,78
2023-04-18T00:20:35.127Z,78
2023-04-18T00:20:56.056Z,78
2023-04-18T00:21:27.680Z,78
2023-04-18T00:21:59.687Z,78
2023-04-18T00:22:31.567Z,78
2023-04-18T00:23:03.575Z,78
2023-04-18T00:23:36.335Z,79
2023-04-18T00:24:07.624Z,79
2023-04-18T00:24:35.170Z,79
2023-04-18T00:24:55.634Z,79
2023-04-18T00:25:27.860Z,79
2023-04-18T00:25:59.629Z,79
2023-04-18T00:26:31.559Z,80
2023-04-18T00:27:03.643Z,80
2023-04-18T00:27:35.606Z,80
2023-04-18T00:28:07.618Z,79
2023-04-18T00:28:35.152Z,79
2023-04-18T00:28:55.577Z,79
2023-04-18T00:29:27.578Z,79
2023-04-18T00:30:01.608Z,79
2023-04-18T00:30:31.582Z,79
2023-04-18T00:31:03.675Z,79
2023-04-18T00:31:35.594Z,79
2023-04-18T00:32:07.637Z,79
2023-04-18T00:32:35.177Z,79
2023-04-18T00:32:55.617Z,79
2023-04-18T00:33:27.614Z,80
2023-04-18T00:33:59.574Z,80
2023-04-18T00:34:31.614Z,80
2023-04-18T00:35:03.993Z,80
2023-04-18T00:35:35.614Z,80
2023-04-18T00:36:07.599Z,80
2023-04-18T00:36:35.497Z,80
2023-04-18T00:36:55.990Z,80
2023-04-18T00:37:27.601Z,80
2023-04-18T00:37:59.553Z,80
2023-04-18T00:38:31.571Z,81
2023-04-18T00:39:03.643Z,81
2023-04-18T00:39:36.678Z,80
2023-04-18T00:40:07.902Z,80
2023-04-18T00:40:35.564Z,80
2023-04-18T00:40:56.217Z,80
2023-04-18T00:41:27.630Z,80
2023-04-18T00:41:59.619Z,80
2023-04-18T00:42:33.004Z,80
2023-04-18T00:43:03.731Z,80
2023-04-18T00:43:35.742Z,80
2023-04-18T00:44:08.441Z,80
2023-04-18T00:44:35.649Z,80
2023-04-18T00:44:55.753Z,80
2023-04-18T00:45:28.373Z,79
2023-04-18T00:46:03.465Z,79
2023-04-18T00:46:31.809Z,79
2023-04-18T00:47:03.851Z,80
2023-04-18T00:47:35.819Z,79
2023-04-18T00:48:07.851Z,79
2023-04-18T00:48:35.670Z,79
2023-04-18T00:48:55.772Z,79
2023-04-18T00:49:27.680Z,79
2023-04-18T00:49:59.906Z,79
2023-04-18T00:50:32.422Z,79
2023-04-18T00:51:03.982Z,79
2023-04-18T00:51:35.623Z,79
2023-04-18T00:52:07.632Z,79
2023-04-18T00:52:35.192Z,79
2023-04-18T00:52:55.639Z,79
2023-04-18T00:53:27.644Z,79
2023-04-18T00:53:59.609Z,79
2023-04-18T00:54:31.596Z,79
2023-04-18T00:55:03.987Z,79
2023-04-18T00:55:36.416Z,79
2023-04-18T00:56:07.647Z,79
2023-04-18T00:56:35.196Z,78
2023-04-18T00:56:55.654Z,78
2023-04-18T00:57:27.637Z,78
2023-04-18T00:57:59.635Z,79
2023-04-18T00:58:31.602Z,79
2023-04-18T00:59:03.710Z,79
2023-04-18T00:59:35.721Z,79
2023-04-18T01:00:08.303Z,79
2023-04-18T01:00:35.201Z,79
2023-04-18T01:00:55.896Z,79
2023-04-18T01:01:27.659Z,79
2023-04-18T01:02:05.430Z,79
2023-04-18T01:02:31.813Z,79
2023-04-18T01:03:03.888Z,79
2023-04-18T01:03:35.822Z,79
2023-04-18T01:04:07.776Z,79
2023-04-18T01:04:35.247Z,79
2023-04-18T01:04:55.648Z,79
2023-04-18T01:05:27.970Z,79
2023-04-18T01:05:59.649Z,80
2023-04-18T01:06:31.654Z,80
2023-04-18T01:07:03.621Z,80
2023-04-18T01:07:35.659Z,80
2023-04-18T01:08:07.713Z,80
2023-04-18T01:08:35.203Z,80
2023-04-18T01:08:55.629Z,80
2023-04-18T01:09:28.367Z,80
2023-04-18T01:09:59.623Z,80
2023-04-18T01:10:31.939Z,79
2023-04-18T01:11:03.643Z,80
2023-04-18T01:11:35.636Z,80
2023-04-18T01:12:07.686Z,80
2023-04-18T01:12:36.015Z,80
2023-04-18T01:12:55.656Z,80
2023-04-18T01:13:27.626Z,80
2023-04-18T01:13:59.647Z,80
2023-04-18T01:14:31.747Z,80
2023-04-18T01:15:04.710Z,80
2023-04-18T01:15:35.678Z,80
2023-04-18T01:16:07.866Z,80
2023-04-18T01:16:35.192Z,80
2023-04-18T01:16:55.829Z,80
2023-04-18T01:17:27.638Z,80
2023-04-18T01:17:59.651Z,80
2023-04-18T01:18:31.600Z,80
2023-04-18T01:19:04.402Z,80
2023-04-18T01:19:35.652Z,80
2023-04-18T01:20:08.120Z,80
2023-04-18T01:20:35.188Z,80
2023-04-18T01:20:55.956Z,80
2023-04-18T01:21:27.654Z,80
2023-04-18T01:21:59.589Z,80
2023-04-18T01:22:31.703Z,80
2023-04-18T01:23:03.703Z,80
2023-04-18T01:23:35.712Z,80
2023-04-18T01:24:07.663Z,79
2023-04-18T01:24:35.691Z,79
2023-04-18T01:24:55.644Z,79
2023-04-18T01:25:28.757Z,79
2023-04-18T01:25:59.686Z,79
2023-04-18T01:26:31.650Z,79
2023-04-18T01:27:03.646Z,79
2023-04-18T01:27:35.614Z,80
2023-04-18T01:28:07.625Z,79
2023-04-18T01:28:35.871Z,79
2023-04-18T01:28:55.645Z,79
2023-04-18T01:29:27.658Z,80
2023-04-18T01:29:59.658Z,80
2023-04-18T01:30:32.145Z,80
2023-04-18T01:31:03.761Z,80
2023-04-18T01:31:36.128Z,79
2023-04-18T01:32:07.865Z,79
2023-04-18T01:32:35.217Z,79
2023-04-18T01:32:55.668Z,80
2023-04-18T01:33:27.765Z,80
2023-04-18T01:33:59.577Z,80
2023-04-18T01:34:31.620Z,80
2023-04-18T01:35:04.612Z,80
2023-04-18T01:35:35.650Z,80
2023-04-18T01:36:07.558Z,80
2023-04-18T01:36:35.133Z,80
2023-04-18T01:36:55.594Z,80
2023-04-18T01:37:27.617Z,80
2023-04-18T01:37:59.613Z,80
2023-04-18T01:38:31.609Z,80
2023-04-18T01:39:03.595Z,81
2023-04-18T01:39:35.631Z,81
2023-04-18T01:40:08.029Z,81
2023-04-18T01:40:35.170Z,81
2023-04-18T01:40:55.872Z,81
2023-04-18T01:41:28.398Z,81
2023-04-18T01:41:59.891Z,81
2023-04-18T01:42:31.603Z,81
2023-04-18T01:43:03.585Z,81
2023-04-18T01:43:35.616Z,81
2023-04-18T01:44:07.598Z,81
2023-04-18T01:44:36.034Z,81
2023-04-18T01:44:55.615Z,82
2023-04-18T01:45:28.165Z,82
2023-04-18T01:45:59.593Z,82
2023-04-18T01:46:31.672Z,82
2023-04-18T01:47:03.690Z,82
2023-04-18T01:47:35.657Z,82
2023-04-18T01:48:07.591Z,82
2023-04-18T01:48:35.136Z,82
2023-04-18T01:48:55.617Z,82
2023-04-18T01:49:27.593Z,82
2023-04-18T01:49:59.580Z,82
2023-04-18T01:50:32.244Z,83
2023-04-18T01:51:05.218Z,83
2023-04-18T01:51:35.617Z,83
2023-04-18T01:52:07.592Z,83
2023-04-18T01:52:35.353Z,83
2023-04-18T01:52:55.639Z,83
2023-04-18T01:53:27.636Z,83
2023-04-18T01:53:59.621Z,84
2023-04-18T01:54:31.644Z,84
2023-04-18T01:55:03.937Z,84
2023-04-18T01:55:35.977Z,84
2023-04-18T01:56:07.628Z,84
2023-04-18T01:56:35.112Z,84
2023-04-18T01:56:55.614Z,84
2023-04-18T01:57:28.392Z,84
2023-04-18T01:57:59.583Z,84
2023-04-18T01:58:31.666Z,84
2023-04-18T01:59:03.572Z,84
2023-04-18T01:59:35.671Z,84
2023-04-18T02:00:08.238Z,84
2023-04-18T02:00:36.640Z,84
2023-04-18T02:00:56.061Z,84
2023-04-18T02:01:27.681Z,84
2023-04-18T02:01:59.753Z,84
2023-04-18T02:02:31.828Z,84
2023-04-18T02:03:03.741Z,84
2023-04-18T02:03:35.866Z,84
2023-04-18T02:04:07.748Z,84
2023-04-18T02:04:35.124Z,84
2023-04-18T02:04:55.624Z,84
2023-04-18T02:05:27.903Z,84
2023-04-18T02:05:59.578Z,84
2023-04-18T02:06:31.622Z,84
2023-04-18T02:07:04.321Z,84
2023-04-18T02:07:35.752Z,84
2023-04-18T02:08:07.609Z,84
2023-04-18T02:08:35.736Z,84
2023-04-18T02:08:55.625Z,84
2023-04-18T02:09:27.634Z,84
2023-04-18T02:09:59.611Z,84
2023-04-18T02:10:31.895Z,84
2023-04-18T02:11:03.635Z,84
2023-04-18T02:11:35.621Z,85
2023-04-18T02:12:07.598Z,85
2023-04-18T02:12:35.094Z,85
2023-04-18T02:12:55.632Z,85
2023-04-18T02:13:28.390Z,85
2023-04-18T02:13:59.693Z,85
2023-04-18T02:14:31.679Z,85
2023-04-18T02:15:04.209Z,85
2023-04-18T02:15:35.645Z,85
2023-04-18T02:16:07.826Z,85
2023-04-18T02:16:37.003Z,85
2023-04-18T02:16:55.670Z,85
2023-04-18T02:17:27.590Z,85
2023-04-18T02:17:59.632Z,85
2023-04-18T02:18:31.667Z,85
2023-04-18T02:19:03.609Z,85
2023-04-18T02:19:35.683Z,85
2023-04-18T02:20:07.919Z,86
2023-04-18T02:20:35.539Z,85
2023-04-18T02:20:55.880Z,85
2023-04-18T02:21:27.604Z,85
2023-04-18T02:21:59.577Z,85
2023-04-18T02:22:31.686Z,86
2023-04-18T02:23:04.310Z,86
2023-04-18T02:23:35.931Z,86
2023-04-18T02:24:07.601Z,86
2023-04-18T02:24:35.101Z,86
2023-04-18T02:24:55.669Z,86
2023-04-18T02:25:27.892Z,86
2023-04-18T02:25:59.688Z,86
2023-04-18T02:26:31.687Z,86
2023-04-18T02:27:03.614Z,86
2023-04-18T02:27:35.655Z,86
2023-04-18T02:28:07.574Z,86
2023-04-18T02:28:35.101Z,86
2023-04-18T02:28:55.655Z,86
2023-04-18T02:29:28.652Z,86
2023-04-18T02:29:59.597Z,86
2023-04-18T02:30:32.500Z,86
2023-04-18T02:31:03.614Z,87
2023-04-18T02:31:35.964Z,86
2023-04-18T02:32:07.645Z,86
2023-04-18T02:32:38.184Z,87
2023-04-18T02:32:55.673Z,87
2023-04-18T02:33:27.630Z,87
2023-04-18T02:33:59.905Z,87
2023-04-18T02:34:31.765Z,86
2023-04-18T02:35:04.193Z,87
2023-04-18T02:35:35.689Z,87
2023-04-18T02:36:07.641Z,87
2023-04-18T02:36:35.110Z,87
2023-04-18T02:36:55.906Z,87
2023-04-18T02:37:27.590Z,87
2023-04-18T02:37:59.630Z,87
2023-04-18T02:38:31.713Z,87
2023-04-18T02:39:04.478Z,87
2023-04-18T02:39:35.644Z,87
2023-04-18T02:40:07.912Z,87
2023-04-18T02:40:35.121Z,87
2023-04-18T02:40:55.883Z,87
2023-04-18T02:41:27.956Z,87
2023-04-18T02:41:59.616Z,87
2023-04-18T02:42:31.753Z,87
2023-04-18T02:43:03.638Z,87
2023-04-18T02:43:35.694Z,87
2023-04-18T02:44:07.628Z,87
2023-04-18T02:44:35.417Z,87
2023-04-18T02:44:55.636Z,87
2023-04-18T02:45:28.929Z,87
2023-04-18T02:45:59.647Z,87
2023-04-18T02:46:31.790Z,87
2023-04-18T02:47:03.629Z,87
2023-04-18T02:47:46.971Z,87
2023-04-18T02:48:07.696Z,88
2023-04-18T02:48:35.964Z,88
2023-04-18T02:48:55.971Z,88
2023-04-18T02:49:27.617Z,88
2023-04-18T02:49:59.640Z,88
2023-04-18T02:50:32.055Z,88
2023-04-18T02:51:03.700Z,88
2023-04-18T02:51:35.649Z,88
2023-04-18T02:52:07.636Z,88
2023-04-18T02:52:35.096Z,88
2023-04-18T02:52:55.657Z,88
2023-04-18T02:53:27.612Z,88
2023-04-18T02:53:59.588Z,88
2023-04-18T02:54:31.753Z,88
2023-04-18T02:55:04.758Z,88
2023-04-18T02:55:35.956Z,88
2023-04-18T02:56:07.612Z,88
2023-04-18T02:56:35.099Z,88
2023-04-18T02:56:55.667Z,88
2023-04-18T02:57:27.650Z,88
2023-04-18T02:57:59.616Z,88
2023-04-18T02:58:31.845Z,88
2023-04-18T02:59:03.623Z,88
2023-04-18T02:59:35.679Z,88
2023-04-18T03:00:08.129Z,88
2023-04-18T03:00:35.125Z,88
2023-04-18T03:00:55.941Z,88
2023-04-18T03:01:28.478Z,88
2023-04-18T03:01:59.630Z,88
2023-04-18T03:02:31.931Z,88
2023-04-18T03:03:03.781Z,88
2023-04-18T03:03:35.746Z,88
2023-04-18T03:04:07.588Z,88
2023-04-18T03:04:41.818Z,88
2023-04-18T03:05:12.394Z,88
2023-04-18T03:05:35.107Z,88
2023-04-18T03:05:59.834Z,88
2023-04-18T03:06:31.756Z,88
2023-04-18T03:07:03.656Z,88
2023-04-18T03:07:35.665Z,88
2023-04-18T03:08:08.386Z,88
2023-04-18T03:08:35.085Z,88
2023-04-18T03:08:55.622Z,88
2023-04-18T03:09:27.637Z,88
2023-04-18T03:09:59.590Z,89
2023-04-18T03:10:32.122Z,88
2023-04-18T03:11:03.896Z,88
2023-04-18T03:11:35.648Z,88
2023-04-18T03:12:07.583Z,88
2023-04-18T03:12:35.147Z,88
2023-04-18T03:12:55.617Z,88
2023-04-18T03:13:27.676Z,88
2023-04-18T03:13:59.629Z,88
2023-04-18T03:14:32.251Z,88
2023-04-18T03:15:04.234Z,88
2023-04-18T03:15:36.012Z,88
2023-04-18T03:16:07.859Z,88
2023-04-18T03:16:35.117Z,88
2023-04-18T03:16:55.767Z,88
2023-04-18T03:17:27.727Z,88
2023-04-18T03:18:04.987Z,88
2023-04-18T03:18:31.767Z,88
2023-04-18T03:19:03.683Z,88
2023-04-18T03:19:35.682Z,89
2023-04-18T03:20:07.949Z,89
2023-04-18T03:20:35.125Z,89
2023-04-18T03:20:56.536Z,89
2023-04-18T03:21:27.616Z,89
2023-04-18T03:21:59.616Z,89
2023-04-18T03:22:31.829Z,89
2023-04-18T03:23:03.636Z,89
2023-04-18T03:23:35.663Z,89
2023-04-18T03:24:09.224Z,89
2023-04-18T03:24:35.069Z,89
2023-04-18T03:24:55.639Z,89
2023-04-18T03:25:27.923Z,89
2023-04-18T03:25:59.878Z,89
2023-04-18T03:26:31.884Z,89
2023-04-18T03:27:03.604Z,89
2023-04-18T03:27:35.663Z,89
2023-04-18T03:28:07.622Z,89
2023-04-18T03:28:35.086Z,89
2023-04-18T03:28:55.666Z,89
2023-04-18T03:29:27.660Z,89
2023-04-18T03:29:59.784Z,89
2023-04-18T03:30:32.784Z,89
2023-04-18T03:31:03.689Z,89
2023-04-18T03:31:35.778Z,89
2023-04-18T03:32:07.618Z,89
2023-04-18T03:32:35.161Z,89
2023-04-18T03:32:55.661Z,89
2023-04-18T03:33:27.717Z,89
2023-04-18T03:33:59.621Z,89
2023-04-18T03:34:32.534Z,89
2023-04-18T03:35:03.948Z,89
2023-04-18T03:35:35.678Z,90
2023-04-18T03:36:07.642Z,90
2023-04-18T03:36:35.408Z,90
2023-04-18T03:36:56.141Z,90
2023-04-18T03:37:27.648Z,90
2023-04-18T03:37:59.623Z,90
2023-04-18T03:38:31.898Z,90
2023-04-18T03:39:03.642Z,90
2023-04-18T03:39:35.681Z,90
2023-04-18T03:40:08.716Z,90
2023-04-18T03:40:35.062Z,90
2023-04-18T03:40:55.927Z,90
2023-04-18T03:41:27.773Z,90
2023-04-18T03:41:59.605Z,90
2023-04-18T03:42:31.896Z,90
2023-04-18T03:43:03.617Z,90
2023-04-18T03:43:35.664Z,90
2023-04-18T03:44:07.609Z,90
2023-04-18T03:44:35.058Z,90
2023-04-18T03:44:55.644Z,90
2023-04-18T03:45:28.206Z,90
2023-04-18T03:45:59.711Z,90
2023-04-18T03:46:32.628Z,90
2023-04-18T03:47:03.598Z,90
2023-04-18T03:47:35.712Z,90
2023-04-18T03:48:07.646Z,90
2023-04-18T03:48:35.073Z,90
2023-04-18T03:48:55.650Z,90
2023-04-18T03:49:27.648Z,90
2023-04-18T03:49:59.622Z,90
2023-04-18T03:50:32.182Z,90
2023-04-18T03:51:03.625Z,90
2023-04-18T03:51:35.643Z,90
2023-04-18T03:52:07.643Z,90
2023-04-18T03:52:35.086Z,90
2023-04-18T03:52:56.442Z,90
2023-04-18T03:53:27.639Z,90
2023-04-18T03:53:59.631Z,90
2023-04-18T03:54:31.985Z,90
2023-04-18T03:55:03.959Z,90
2023-04-18T03:55:35.833Z,90
2023-04-18T03:56:08.756Z,90
2023-04-18T03:56:35.068Z,90
2023-04-18T03:56:55.666Z,90
2023-04-18T03:57:27.649Z,90
2023-04-18T03:57:59.607Z,90
2023-04-18T03:58:31.983Z,90
2023-04-18T03:59:03.626Z,90
2023-04-18T03:59:35.647Z,90
2023-04-18T04:00:08.151Z,90
2023-04-18T04:00:35.094Z,90
2023-04-18T04:00:55.968Z,90
2023-04-18T04:01:27.693Z,89
2023-04-18T04:01:59.793Z,89
2023-04-18T04:02:31.993Z,89
2023-04-18T04:03:03.483Z,90
2023-04-18T04:03:35.346Z,90
2023-04-18T04:04:07.249Z,89
2023-04-18T04:04:34.679Z,89
2023-04-18T04:04:55.243Z,90
2023-04-18T04:05:27.667Z,90
2023-04-18T04:05:59.195Z,90
2023-04-18T04:06:31.227Z,90
2023-04-18T04:07:05.348Z,90
2023-04-18T04:07:37.258Z,90
2023-04-18T04:08:07.716Z,90
2023-04-18T04:08:35.071Z,90
2023-04-18T04:08:55.644Z,90
2023-04-18T04:09:28.321Z,90
2023-04-18T04:09:59.811Z,90
2023-04-18T04:10:32.029Z,90
2023-04-18T04:11:03.766Z,90
2023-04-18T04:11:37.088Z,90
2023-04-18T04:12:07.713Z,90
2023-04-18T04:12:35.891Z,90
2023-04-18T04:12:55.601Z,90
2023-04-18T04:13:28.108Z,90
2023-04-18T04:13:59.651Z,90
2023-04-18T04:14:31.649Z,90
2023-04-18T04:15:04.215Z,90
2023-04-18T04:15:35.673Z,90
2023-04-18T04:16:07.864Z,90
2023-04-18T04:16:35.410Z,90
2023-04-18T04:16:55.636Z,90
2023-04-18T04:17:28.076Z,90
2023-04-18T04:18:00.033Z,90
2023-04-18T04:18:31.685Z,90
2023-04-18T04:19:04.341Z,90
2023-04-18T04:19:35.670Z,90
2023-04-18T04:20:07.939Z,90
2023-04-18T04:20:35.591Z,90
2023-04-18T04:20:55.960Z,90
2023-04-18T04:21:28.102Z,90
2023-04-18T04:21:59.648Z,90
2023-04-18T04:22:31.627Z,90
2023-04-18T04:23:03.825Z,90
2023-04-18T04:23:35.750Z,90
2023-04-18T04:24:07.657Z,90
2023-04-18T04:24:35.088Z,90
2023-04-18T04:24:55.654Z,90
2023-04-18T04:25:28.826Z,90
2023-04-18T04:25:59.658Z,90
2023-04-18T04:26:31.739Z,90
2023-04-18T04:27:03.709Z,90
2023-04-18T04:27:36.047Z,90
2023-04-18T04:28:07.805Z,90
2023-04-18T04:28:36.229Z,90
2023-04-18T04:28:55.729Z,90
2023-04-18T04:29:28.243Z,90
2023-04-18T04:29:59.742Z,90
2023-04-18T04:30:32.281Z,90
2023-04-18T04:31:03.839Z,90
2023-04-18T04:31:35.805Z,90
2023-04-18T04:32:07.864Z,90
2023-04-18T04:32:35.260Z,90
2023-04-18T04:32:55.806Z,90
2023-04-18T04:33:28.332Z,90
2023-04-18T04:33:59.733Z,90
2023-04-18T04:34:31.795Z,90
2023-04-18T04:35:04.822Z,90
2023-04-18T04:35:35.986Z,89
2023-04-18T04:36:07.774Z,89
2023-04-18T04:36:35.193Z,89
2023-04-18T04:36:55.749Z,89
2023-04-18T04:37:28.185Z,89
2023-04-18T04:37:59.712Z,89
2023-04-18T04:38:31.764Z,89
2023-04-18T04:39:03.797Z,89
2023-04-18T04:39:35.752Z,89
2023-04-18T04:40:08.081Z,89
2023-04-18T04:40:35.202Z,89
2023-04-18T04:40:56.048Z,88
2023-04-18T04:41:28.532Z,88
2023-04-18T04:41:59.773Z,88
2023-04-18T04:42:31.784Z,88
2023-04-18T04:43:03.830Z,88
2023-04-18T04:43:35.970Z,88
2023-04-18T04:44:07.769Z,88
2023-04-18T04:44:37.028Z,88
2023-04-18T04:44:55.800Z,88
2023-04-18T04:45:28.775Z,88
2023-04-18T04:45:59.776Z,88
2023-04-18T04:46:31.722Z,88
2023-04-18T04:47:03.804Z,88
2023-04-18T04:47:35.760Z,88
2023-04-18T04:48:07.788Z,88
2023-04-18T04:48:35.224Z,88
2023-04-18T04:48:55.773Z,88
2023-04-18T04:49:28.262Z,88
2023-04-18T04:49:59.796Z,88
2023-04-18T04:50:32.100Z,88
2023-04-18T04:51:04.555Z,87
2023-04-18T04:51:35.750Z,87
2023-04-18T04:52:07.817Z,87
2023-04-18T04:52:35.165Z,88
2023-04-18T04:52:55.701Z,87
2023-04-18T04:53:28.235Z,88
2023-04-18T04:53:59.756Z,88
2023-04-18T04:54:31.781Z,87
2023-04-18T04:55:04.139Z,88
2023-04-18T04:55:35.784Z,88
2023-04-18T04:56:07.757Z,88
2023-04-18T04:56:35.172Z,88
2023-04-18T04:56:55.805Z,88
2023-04-18T04:57:28.746Z,88
2023-04-18T04:57:59.786Z,88
2023-04-18T04:58:31.811Z,88
2023-04-18T04:59:03.843Z,88
2023-04-18T04:59:36.081Z,88
2023-04-18T05:00:08.345Z,88
2023-04-18T05:00:36.099Z,88
2023-04-18T05:00:56.113Z,87
2023-04-18T05:01:28.329Z,87
2023-04-18T05:01:59.809Z,87
2023-04-18T05:02:31.867Z,87
2023-04-18T05:03:03.930Z,87
2023-04-18T05:03:36.002Z,87
2023-04-18T05:04:07.846Z,87
2023-04-18T05:04:35.324Z,87
2023-04-18T05:04:55.740Z,87
2023-04-18T05:05:28.603Z,87
2023-04-18T05:05:59.757Z,88
2023-04-18T05:06:31.794Z,88
2023-04-18T05:07:04.609Z,88
2023-04-18T05:07:35.759Z,88
2023-04-18T05:08:07.802Z,88
2023-04-18T05:08:35.158Z,88
2023-04-18T05:08:55.732Z,88
2023-04-18T05:09:28.146Z,87
2023-04-18T05:10:00.540Z,87
2023-04-18T05:10:31.771Z,87
2023-04-18T05:11:03.927Z,87
2023-04-18T05:11:35.948Z,87
2023-04-18T05:12:07.760Z,87
2023-04-18T05:12:35.175Z,87
2023-04-18T05:12:55.788Z,87
2023-04-18T05:13:28.562Z,87
2023-04-18T05:13:59.804Z,87
2023-04-18T05:14:31.705Z,87
2023-04-18T05:15:04.432Z,87
2023-04-18T05:15:35.831Z,87
2023-04-18T05:16:07.919Z,87
2023-04-18T05:16:36.116Z,87
2023-04-18T05:16:55.816Z,87
2023-04-18T05:17:28.221Z,87
2023-04-18T05:17:59.823Z,87
2023-04-18T05:18:33.056Z,87
2023-04-18T05:19:03.995Z,87
2023-04-18T05:19:35.781Z,87
2023-04-18T05:20:08.054Z,87
2023-04-18T05:20:35.199Z,87
2023-04-18T05:20:56.012Z,87
2023-04-18T05:21:28.232Z,87
2023-04-18T05:21:59.770Z,87
2023-04-18T05:22:31.801Z,87
2023-04-18T05:23:04.671Z,87
2023-04-18T05:23:35.798Z,87
2023-04-18T05:24:07.798Z,87
2023-04-18T05:24:35.195Z,87
2023-04-18T05:24:55.764Z,87
2023-04-18T05:25:28.615Z,87
2023-04-18T05:25:59.725Z,87
2023-04-18T05:26:31.790Z,87
2023-04-18T05:27:03.992Z,87
2023-04-18T05:27:35.863Z,87
2023-04-18T05:28:07.757Z,87
2023-04-18T05:28:35.153Z,87
2023-04-18T05:28:55.793Z,87
2023-04-18T05:29:28.532Z,87
2023-04-18T05:29:59.801Z,87
2023-04-18T05:30:32.357Z,87
2023-04-18T05:31:03.944Z,87
2023-04-18T05:31:35.858Z,87
2023-04-18T05:32:07.804Z,87
2023-04-18T05:32:36.832Z,87
2023-04-18T05:32:55.766Z,87
2023-04-18T05:33:28.227Z,87
2023-04-18T05:33:59.765Z,87
2023-04-18T05:34:31.780Z,87
2023-04-18T05:35:04.118Z,87
2023-04-18T05:35:35.775Z,87
2023-04-18T05:36:07.749Z,87
2023-04-18T05:36:35.162Z,87
2023-04-18T05:36:55.794Z,87
2023-04-18T05:37:28.263Z,87
2023-04-18T05:37:59.752Z,87
2023-04-18T05:38:31.801Z,87
2023-04-18T05:39:04.537Z,87
2023-04-18T05:39:35.811Z,87
2023-04-18T05:40:08.073Z,87
2023-04-18T05:40:35.199Z,87
2023-04-18T05:40:56.088Z,87
2023-04-18T05:41:28.274Z,87
2023-04-18T05:41:59.725Z,87
2023-04-18T05:42:31.788Z,87
2023-04-18T05:43:03.867Z,87
2023-04-18T05:43:35.765Z,87
2023-04-18T05:44:07.780Z,87
2023-04-18T05:44:35.400Z,87
2023-04-18T05:44:55.776Z,87
2023-04-18T05:45:29.291Z,87
2023-04-18T05:45:59.886Z,87
2023-04-18T05:46:31.832Z,87
2023-04-18T05:47:03.837Z,88
2023-04-18T05:47:35.818Z,88
2023-04-18T05:48:07.983Z,88
2023-04-18T05:48:36.196Z,88
2023-04-18T05:48:55.743Z,88
2023-04-18T05:49:28.192Z,88
2023-04-18T05:49:59.776Z,88
2023-04-18T05:50:32.076Z,88
2023-04-18T05:51:03.840Z,88
2023-04-18T05:51:36.021Z,88
2023-04-18T05:52:07.770Z,88
2023-04-18T05:52:35.489Z,88
2023-04-18T05:52:55.754Z,88
2023-04-18T05:53:28.279Z,88
2023-04-18T05:53:59.825Z,88
2023-04-18T05:54:31.802Z,88
2023-04-18T05:55:05.659Z,88
2023-04-18T05:55:35.840Z,88
2023-04-18T05:56:07.797Z,88
2023-04-18T05:56:35.172Z,88
2023-04-18T05:56:55.878Z,87
2023-04-18T05:57:28.294Z,87
2023-04-18T05:57:59.718Z,87
2023-04-18T05:58:31.808Z,87
2023-04-18T05:59:03.842Z,87
2023-04-18T05:59:35.832Z,87
2023-04-18T06:00:08.386Z,87
2023-04-18T06:00:35.335Z,87
2023-04-18T06:00:56.001Z,87
2023-04-18T06:01:28.795Z,87
2023-04-18T06:02:00.300Z,87
2023-04-18T06:02:31.914Z,87
2023-04-18T06:03:04.107Z,87
2023-04-18T06:03:36.052Z,87
2023-04-18T06:04:08.059Z,87
2023-04-18T06:04:36.068Z,87
2023-04-18T06:04:55.895Z,87
2023-04-18T06:05:28.896Z,87
2023-04-18T06:05:59.849Z,87
2023-04-18T06:06:31.833Z,87
2023-04-18T06:07:03.832Z,87
2023-04-18T06:07:35.727Z,87
2023-04-18T06:08:07.754Z,87
2023-04-18T06:08:35.421Z,87
2023-04-18T06:08:55.804Z,87
2023-04-18T06:09:28.285Z,87
2023-04-18T06:09:59.710Z,87
2023-04-18T06:10:32.148Z,87
2023-04-18T06:11:04.664Z,87
2023-04-18T06:11:35.786Z,87
2023-04-18T06:12:07.796Z,87
2023-04-18T06:12:35.141Z,87
2023-04-18T06:12:55.713Z,87
2023-04-18T06:13:28.255Z,87
2023-04-18T06:13:59.738Z,87
2023-04-18T06:14:31.747Z,87
2023-04-18T06:15:04.383Z,87
2023-04-18T06:15:35.759Z,87
2023-04-18T06:16:07.984Z,87
2023-04-18T06:16:35.249Z,87
2023-04-18T06:16:55.824Z,87
2023-04-18T06:17:28.624Z,87
2023-04-18T06:17:59.779Z,87
2023-04-18T06:18:31.891Z,87
2023-04-18T06:19:03.861Z,87
2023-04-18T06:19:35.902Z,87
2023-04-18T06:20:08.185Z,87
2023-04-18T06:20:35.944Z,87
2023-04-18T06:20:56.060Z,87
2023-04-18T06:21:28.366Z,87
2023-04-18T06:21:59.749Z,87
2023-04-18T06:22:31.791Z,87
2023-04-18T06:23:03.972Z,87
2023-04-18T06:23:36.082Z,88
2023-04-18T06:24:07.789Z,88
2023-04-18T06:24:35.173Z,88
2023-04-18T06:24:55.781Z,88
2023-04-18T06:25:28.530Z,88
2023-04-18T06:25:59.767Z,88
2023-04-18T06:26:31.845Z,88
2023-04-18T06:27:04.578Z,88
2023-04-18T06:27:35.747Z,88
2023-04-18T06:28:07.749Z,88
2023-04-18T06:28:35.175Z,88
2023-04-18T06:28:55.788Z,88
2023-04-18T06:29:28.252Z,88
2023-04-18T06:29:59.797Z,88
2023-04-18T06:30:32.302Z,88
2023-04-18T06:31:03.772Z,88
2023-04-18T06:31:35.782Z,88
2023-04-18T06:32:07.778Z,88
2023-04-18T06:32:35.424Z,88
2023-04-18T06:32:55.830Z,88
2023-04-18T06:33:29.058Z,88
2023-04-18T06:33:59.800Z,88
2023-04-18T06:34:31.806Z,88
2023-04-18T06:35:04.114Z,88
2023-04-18T06:35:35.834Z,88
2023-04-18T06:36:07.780Z,88
2023-04-18T06:36:37.457Z,88
2023-04-18T06:36:55.784Z,88
2023-04-18T06:37:28.236Z,87
2023-04-18T06:37:59.780Z,87
2023-04-18T06:38:31.837Z,87
2023-04-18T06:39:03.902Z,87
2023-04-18T06:39:35.704Z,87
2023-04-18T06:40:08.207Z,87
2023-04-18T06:40:35.175Z,87
2023-04-18T06:40:56.062Z,87
2023-04-18T06:41:28.311Z,87
2023-04-18T06:41:59.782Z,87
2023-04-18T06:42:31.848Z,87
2023-04-18T06:43:04.677Z,87
2023-04-18T06:43:36.096Z,87
2023-04-18T06:44:07.787Z,87
2023-04-18T06:44:35.175Z,87
2023-04-18T06:44:56.060Z,87
2023-04-18T06:45:28.799Z,87
2023-04-18T06:45:59.853Z,87
2023-04-18T06:46:31.816Z,87
2023-04-18T06:47:03.809Z,87
2023-04-18T06:47:35.777Z,87
2023-04-18T06:48:07.825Z,87
2023-04-18T06:48:35.182Z,87
2023-04-18T06:48:55.826Z,87
2023-04-18T06:49:28.578Z,87
2023-04-18T06:49:59.801Z,87
2023-04-18T06:50:32.211Z,87
2023-04-18T06:51:03.892Z,87
2023-04-18T06:51:35.791Z,87
2023-04-18T06:52:07.816Z,87
2023-04-18T06:52:36.068Z,87
2023-04-18T06:52:55.752Z,87
2023-04-18T06:53:28.205Z,87
2023-04-18T06:54:00.087Z,87
2023-04-18T06:54:31.819Z,87
2023-04-18T06:55:04.110Z,87
2023-04-18T06:55:35.759Z,87
2023-04-18T06:56:07.767Z,87
2023-04-18T06:56:36.534Z,87
2023-04-18T06:56:55.789Z,87
2023-04-18T06:57:28.327Z,88
2023-04-18T06:57:59.800Z,87
2023-04-18T06:58:31.818Z,88
2023-04-18T06:59:04.582Z,88
2023-04-18T06:59:35.786Z,88
2023-04-18T07:00:08.319Z,88
2023-04-18T07:00:35.213Z,88
2023-04-18T07:00:56.091Z,88
2023-04-18T07:01:28.254Z,88
2023-04-18T07:01:59.768Z,88
2023-04-18T07:02:31.910Z,88
2023-04-18T07:03:03.966Z,87
2023-04-18T07:03:35.932Z,87
2023-04-18T07:04:07.971Z,88
2023-04-18T07:04:35.238Z,88
2023-04-18T07:04:55.750Z,88
2023-04-18T07:05:28.911Z,88
2023-04-18T07:05:59.804Z,88
2023-04-18T07:06:31.803Z,88
2023-04-18T07:07:03.933Z,87
2023-04-18T07:07:36.024Z,87